Jerome, Illinois
Current Conditions -  °F | °C
As of 10:52 AM on Sunday 23 Nov 2014 (Local Time) from KSPI Reporting Station
Light Rain Light Rain  
Wind Chill: 53°   Ceiling: 1400
Heat Index: 53°   Visibility: 10mi
Dew Point: 47°   Wind: 16mph
Humidity: 80%   Direction: 150°SSE
Pressure: 29.62"   Gusts: NA
Location:  39.7725°N, 89.6857°W
Report Text: KSPI 231652Z 15014KT 10SM -RA OVC014 12/08 A2962 RMK AO2 RAB47 SLP029 P0000 T01170083
Loading
Personal Weather Stations






























Interactive Weather Map New forecast layout! Learn more

10-Day Weather Forecast

Advertisements
Track Severe Weather on mobile